sensor_id;sensor_type;location;lat;lon;timestamp;pressure;altitude;pressure_sealevel;temperature;humidity
9189;BME280;34313;50.780;6.084;2022-07-29T00:00:46;99462.47;;;18.28;51.45
9189;BME280;34313;50.780;6.084;2022-07-29T00:03:12;99445.22;;;18.23;51.74
9189;BME280;34313;50.780;6.084;2022-07-29T00:05:41;99444.66;;;18.29;51.62
9189;BME280;34313;50.780;6.084;2022-07-29T00:08:07;99442.69;;;18.21;51.74
9189;BME280;34313;50.780;6.084;2022-07-29T00:10:33;99439.75;;;18.14;52.26
9189;BME280;34313;50.780;6.084;2022-07-29T00:12:58;99439.59;;;18.16;51.94
9189;BME280;34313;50.780;6.084;2022-07-29T00:15:24;99435.53;;;18.12;51.81
9189;BME280;34313;50.780;6.084;2022-07-29T00:17:49;99432.88;;;18.02;52.10
9189;BME280;34313;50.780;6.084;2022-07-29T00:20:15;99434.38;;;17.95;52.25
9189;BME280;34313;50.780;6.084;2022-07-29T00:22:40;99434.66;;;18.02;52.18
9189;BME280;34313;50.780;6.084;2022-07-29T00:25:06;99432.44;;;17.97;52.27
9189;BME280;34313;50.780;6.084;2022-07-29T00:27:32;99425.50;;;17.85;52.52
9189;BME280;34313;50.780;6.084;2022-07-29T00:30:03;99428.72;;;17.79;53.04
9189;BME280;34313;50.780;6.084;2022-07-29T00:32:32;99420.84;;;17.77;53.04
9189;BME280;34313;50.780;6.084;2022-07-29T00:34:58;99425.75;;;17.72;53.65
9189;BME280;34313;50.780;6.084;2022-07-29T00:37:42;99425.31;;;17.67;53.57
9189;BME280;34313;50.780;6.084;2022-07-29T00:40:08;99422.22;;;17.62;54.03
9189;BME280;34313;50.780;6.084;2022-07-29T00:42:44;99412.41;;;17.62;53.83
9189;BME280;34313;50.780;6.084;2022-07-29T00:45:11;99423.88;;;17.53;54.25
9189;BME280;34313;50.780;6.084;2022-07-29T00:47:36;99407.75;;;17.45;54.69
9189;BME280;34313;50.780;6.084;2022-07-29T00:50:04;99417.41;;;17.46;54.61
9189;BME280;34313;50.780;6.084;2022-07-29T00:52:29;99411.38;;;17.44;54.85
9189;BME280;34313;50.780;6.084;2022-07-29T00:54:56;99416.00;;;17.42;54.94
9189;BME280;34313;50.780;6.084;2022-07-29T00:57:21;99422.34;;;17.50;54.77
9189;BME280;34313;50.780;6.084;2022-07-29T00:59:47;99428.81;;;17.57;54.82
9189;BME280;34313;50.780;6.084;2022-07-29T01:02:12;99422.22;;;17.62;54.46
9189;BME280;34313;50.780;6.084;2022-07-29T01:04:38;99431.22;;;17.70;53.91
9189;BME280;34313;50.780;6.084;2022-07-29T01:07:04;99431.66;;;17.75;53.79
9189;BME280;34313;50.780;6.084;2022-07-29T01:09:32;99427.63;;;17.81;53.47
9189;BME280;34313;50.780;6.084;2022-07-29T01:11:58;99420.03;;;17.76;53.38
9189;BME280;34313;50.780;6.084;2022-07-29T01:14:25;99414.69;;;17.76;53.18
9189;BME280;34313;50.780;6.084;2022-07-29T01:30:22;99414.84;;;17.34;54.50
9189;BME280;34313;50.780;6.084;2022-07-29T01:32:54;99417.38;;;17.36;54.84
9189;BME280;34313;50.780;6.084;2022-07-29T01:35:25;99409.53;;;17.34;54.99
9189;BME280;34313;50.780;6.084;2022-07-29T01:38:10;99409.25;;;17.37;55.16
9189;BME280;34313;50.780;6.084;2022-07-29T01:40:49;99405.03;;;17.35;55.50
9189;BME280;34313;50.780;6.084;2022-07-29T01:43:19;99409.22;;;17.28;55.96
9189;BME280;34313;50.780;6.084;2022-07-29T01:46:25;99410.47;;;17.24;56.29
9189;BME280;34313;50.780;6.084;2022-07-29T01:48:59;99402.50;;;17.24;56.27
9189;BME280;34313;50.780;6.084;2022-07-29T01:51:36;99406.25;;;17.21;56.47
9189;BME280;34313;50.780;6.084;2022-07-29T01:56:51;99414.22;;;17.11;56.76
9189;BME280;34313;50.780;6.084;2022-07-29T01:59:17;99409.94;;;16.99;57.09
9189;BME280;34313;50.780;6.084;2022-07-29T02:01:44;99412.19;;;17.04;57.09
9189;BME280;34313;50.780;6.084;2022-07-29T02:04:11;99399.88;;;17.03;57.08
9189;BME280;34313;50.780;6.084;2022-07-29T02:06:38;99414.16;;;17.01;57.20
9189;BME280;34313;50.780;6.084;2022-07-29T02:09:06;99401.97;;;16.99;57.33
9189;BME280;34313;50.780;6.084;2022-07-29T02:11:33;99407.75;;;17.04;57.16
9189;BME280;34313;50.780;6.084;2022-07-29T02:14:01;99401.97;;;16.99;57.31
9189;BME280;34313;50.780;6.084;2022-07-29T02:16:30;99408.38;;;16.96;57.60
9189;BME280;34313;50.780;6.084;2022-07-29T02:18:57;99401.06;;;16.89;57.89
9189;BME280;34313;50.780;6.084;2022-07-29T02:21:26;99407.56;;;16.96;57.75
9189;BME280;34313;50.780;6.084;2022-07-29T02:23:54;99400.19;;;16.88;57.81
9189;BME280;34313;50.780;6.084;2022-07-29T02:26:23;99405.72;;;16.75;58.50
9189;BME280;34313;50.780;6.084;2022-07-29T02:28:51;99412.31;;;16.81;58.22
9189;BME280;34313;50.780;6.084;2022-07-29T02:31:19;99409.88;;;16.89;58.20
9189;BME280;34313;50.780;6.084;2022-07-29T02:33:46;99411.13;;;16.85;58.23
9189;BME280;34313;50.780;6.084;2022-07-29T02:36:13;99411.38;;;16.82;58.43
9189;BME280;34313;50.780;6.084;2022-07-29T02:38:40;99402.72;;;16.69;58.31
9189;BME280;34313;50.780;6.084;2022-07-29T02:41:26;99409.31;;;16.64;58.73
9189;BME280;34313;50.780;6.084;2022-07-29T02:43:55;99421.22;;;16.70;58.98
9189;BME280;34313;50.780;6.084;2022-07-29T02:46:27;99428.50;;;16.68;59.15
9189;BME280;34313;50.780;6.084;2022-07-29T02:49:16;99422.81;;;16.73;58.99
9189;BME280;34313;50.780;6.084;2022-07-29T02:51:53;99426.31;;;16.73;59.06
9189;BME280;34313;50.780;6.084;2022-07-29T02:54:49;99428.84;;;16.75;58.96
9189;BME280;34313;50.780;6.084;2022-07-29T02:57:33;99431.38;;;16.76;59.06
9189;BME280;34313;50.780;6.084;2022-07-29T03:00:05;99428.84;;;16.75;59.06
9189;BME280;34313;50.780;6.084;2022-07-29T03:02:35;99437.78;;;16.74;59.34
9189;BME280;34313;50.780;6.084;2022-07-29T03:05:03;99431.88;;;16.70;59.16
9189;BME280;34313;50.780;6.084;2022-07-29T03:07:29;99436.94;;;16.73;59.51
9189;BME280;34313;50.780;6.084;2022-07-29T03:09:56;99423.31;;;16.67;59.53
9189;BME280;34313;50.780;6.084;2022-07-29T03:12:22;99433.81;;;16.68;59.63
9189;BME280;34313;50.780;6.084;2022-07-29T03:14:48;99433.56;;;16.71;59.70
9189;BME280;34313;50.780;6.084;2022-07-29T03:17:14;99423.19;;;16.68;59.98
9189;BME280;34313;50.780;6.084;2022-07-29T03:19:40;99423.72;;;16.62;59.93
9189;BME280;34313;50.780;6.084;2022-07-29T03:22:06;99434.53;;;16.70;60.01
9189;BME280;34313;50.780;6.084;2022-07-29T03:24:34;99440.72;;;16.71;59.93
9189;BME280;34313;50.780;6.084;2022-07-29T03:27:00;99433.00;;;16.68;60.43
9189;BME280;34313;50.780;6.084;2022-07-29T03:29:27;99439.28;;;16.67;60.66
9189;BME280;34313;50.780;6.084;2022-07-29T03:31:52;99436.03;;;16.63;60.84
9189;BME280;34313;50.780;6.084;2022-07-29T03:34:18;99439.53;;;16.63;60.83
9189;BME280;34313;50.780;6.084;2022-07-29T03:36:43;99433.63;;;16.60;60.99
9189;BME280;34313;50.780;6.084;2022-07-29T03:39:10;99437.84;;;16.62;60.85
9189;BME280;34313;50.780;6.084;2022-07-29T03:41:41;99433.50;;;16.61;61.17
9189;BME280;34313;50.780;6.084;2022-07-29T03:44:09;99435.19;;;16.62;61.26
9189;BME280;34313;50.780;6.084;2022-07-29T03:46:36;99431.38;;;16.55;61.29
9189;BME280;34313;50.780;6.084;2022-07-29T03:49:04;99427.66;;;16.47;61.34
9189;BME280;34313;50.780;6.084;2022-07-29T03:51:33;99442.97;;;16.54;61.48
9189;BME280;34313;50.780;6.084;2022-07-29T03:53:59;99435.41;;;16.50;61.53
9189;BME280;34313;50.780;6.084;2022-07-29T03:56:25;99440.19;;;16.56;61.68
9189;BME280;34313;50.780;6.084;2022-07-29T03:58:52;99450.00;;;16.55;61.80
9189;BME280;34313;50.780;6.084;2022-07-29T04:01:18;99447.34;;;16.55;61.86
9189;BME280;34313;50.780;6.084;2022-07-29T04:03:45;99443.38;;;16.50;61.84
9189;BME280;34313;50.780;6.084;2022-07-29T04:06:11;99448.69;;;16.50;62.00
9189;BME280;34313;50.780;6.084;2022-07-29T04:08:36;99448.25;;;16.44;61.67
9189;BME280;34313;50.780;6.084;2022-07-29T04:11:02;99444.22;;;16.50;61.71
9189;BME280;34313;50.780;6.084;2022-07-29T04:13:28;99454.44;;;16.55;61.32
9189;BME280;34313;50.780;6.084;2022-07-29T04:15:53;99454.31;;;16.56;61.17
9189;BME280;34313;50.780;6.084;2022-07-29T04:18:18;99449.59;;;16.60;61.04
9189;BME280;34313;50.780;6.084;2022-07-29T04:20:44;99454.19;;;16.58;61.06
9189;BME280;34313;50.780;6.084;2022-07-29T04:23:09;99455.38;;;16.65;61.12
9189;BME280;34313;50.780;6.084;2022-07-29T04:25:39;99436.28;;;16.60;60.87
9189;BME280;34313;50.780;6.084;2022-07-29T04:28:05;99450.25;;;16.73;60.86
9189;BME280;34313;50.780;6.084;2022-07-29T04:30:32;99452.66;;;16.76;60.72
9189;BME280;34313;50.780;6.084;2022-07-29T04:32:59;99447.41;;;16.86;60.32
9189;BME280;34313;50.780;6.084;2022-07-29T04:35:26;99448.75;;;16.80;60.75
9189;BME280;34313;50.780;6.084;2022-07-29T04:37:51;99445.13;;;16.81;60.63
9189;BME280;34313;50.780;6.084;2022-07-29T04:40:18;99446.81;;;16.82;60.66
9189;BME280;34313;50.780;6.084;2022-07-29T04:42:43;99451.06;;;16.85;60.59
9189;BME280;34313;50.780;6.084;2022-07-29T04:45:09;99454.19;;;16.90;60.18
9189;BME280;34313;50.780;6.084;2022-07-29T04:47:34;99458.47;;;17.03;59.77
9189;BME280;34313;50.780;6.084;2022-07-29T04:50:00;99445.59;;;17.08;59.81
9189;BME280;34313;50.780;6.084;2022-07-29T04:52:25;99442.47;;;17.03;59.71
9189;BME280;34313;50.780;6.084;2022-07-29T04:54:51;99459.47;;;17.11;59.57
9189;BME280;34313;50.780;6.084;2022-07-29T04:57:16;99455.69;;;17.14;59.18
9189;BME280;34313;50.780;6.084;2022-07-29T04:59:42;99450.91;;;17.08;59.18
9189;BME280;34313;50.780;6.084;2022-07-29T05:02:07;99471.59;;;17.25;58.97
9189;BME280;34313;50.780;6.084;2022-07-29T05:04:32;99461.91;;;17.24;58.73
9189;BME280;34313;50.780;6.084;2022-07-29T05:06:58;99456.59;;;17.24;58.71
9189;BME280;34313;50.780;6.084;2022-07-29T05:09:23;99461.09;;;17.33;58.46
9189;BME280;34313;50.780;6.084;2022-07-29T05:11:49;99449.88;;;17.30;58.26
9189;BME280;34313;50.780;6.084;2022-07-29T05:14:14;99452.66;;;17.28;58.26
9189;BME280;34313;50.780;6.084;2022-07-29T05:16:39;99461.41;;;17.30;58.24
9189;BME280;34313;50.780;6.084;2022-07-29T05:19:05;99456.22;;;17.38;57.38
9189;BME280;34313;50.780;6.084;2022-07-29T05:21:31;99457.47;;;17.34;57.76
9189;BME280;34313;50.780;6.084;2022-07-29T05:23:56;99445.34;;;17.51;57.12
9189;BME280;34313;50.780;6.084;2022-07-29T05:26:22;99455.06;;;17.72;56.25
9189;BME280;34313;50.780;6.084;2022-07-29T05:28:47;99455.56;;;17.87;55.80
9189;BME280;34313;50.780;6.084;2022-07-29T05:31:12;99444.50;;;18.01;55.44
9189;BME280;34313;50.780;6.084;2022-07-29T05:33:40;99452.38;;;18.22;54.51
9189;BME280;34313;50.780;6.084;2022-07-29T05:36:06;99444.41;;;18.32;53.62
9189;BME280;34313;50.780;6.084;2022-07-29T05:38:32;99462.63;;;18.66;52.96
9189;BME280;34313;50.780;6.084;2022-07-29T05:40:58;99460.03;;;19.03;51.93
9189;BME280;34313;50.780;6.084;2022-07-29T05:43:24;99463.56;;;19.41;51.15
9189;BME280;34313;50.780;6.084;2022-07-29T05:45:50;99460.28;;;19.48;50.60
9189;BME280;34313;50.780;6.084;2022-07-29T05:48:15;99452.91;;;19.69;50.06
9189;BME280;34313;50.780;6.084;2022-07-29T05:50:41;99460.25;;;19.57;50.09
9189;BME280;34313;50.780;6.084;2022-07-29T05:53:06;99456.13;;;20.00;49.63
9189;BME280;34313;50.780;6.084;2022-07-29T05:55:32;99464.44;;;20.33;48.27
9189;BME280;34313;50.780;6.084;2022-07-29T05:57:57;99469.88;;;20.42;48.15
9189;BME280;34313;50.780;6.084;2022-07-29T06:00:22;99464.78;;;20.30;48.24
9189;BME280;34313;50.780;6.084;2022-07-29T06:02:48;99471.44;;;19.98;49.13
9189;BME280;34313;50.780;6.084;2022-07-29T06:05:13;99473.41;;;19.78;49.70
9189;BME280;34313;50.780;6.084;2022-07-29T06:07:40;99472.72;;;19.67;50.19
9189;BME280;34313;50.780;6.084;2022-07-29T06:10:06;99464.16;;;19.35;50.77
9189;BME280;34313;50.780;6.084;2022-07-29T06:12:31;99465.78;;;19.08;51.50
9189;BME280;34313;50.780;6.084;2022-07-29T06:14:56;99467.91;;;19.05;51.88
9189;BME280;34313;50.780;6.084;2022-07-29T06:17:22;99463.19;;;18.89;52.55
9189;BME280;34313;50.780;6.084;2022-07-29T06:19:48;99463.88;;;18.81;52.71
9189;BME280;34313;50.780;6.084;2022-07-29T06:22:15;99463.03;;;18.71;52.86
9189;BME280;34313;50.780;6.084;2022-07-29T06:24:41;99465.59;;;18.53;53.65
9189;BME280;34313;50.780;6.084;2022-07-29T06:27:09;99457.88;;;18.30;54.44
9189;BME280;34313;50.780;6.084;2022-07-29T06:29:35;99467.25;;;18.25;54.73
9189;BME280;34313;50.780;6.084;2022-07-29T06:32:00;99462.09;;;18.23;54.92
9189;BME280;34313;50.780;6.084;2022-07-29T06:34:25;99462.78;;;18.25;55.09
9189;BME280;34313;50.780;6.084;2022-07-29T06:36:51;99465.03;;;18.20;55.32
9189;BME280;34313;50.780;6.084;2022-07-29T06:39:17;99463.06;;;18.22;55.40
9189;BME280;34313;50.780;6.084;2022-07-29T06:41:49;99466.13;;;18.18;55.41
9189;BME280;34313;50.780;6.084;2022-07-29T06:44:15;99473.44;;;18.35;55.42
9189;BME280;34313;50.780;6.084;2022-07-29T06:46:41;99458.97;;;18.47;55.10
9189;BME280;34313;50.780;6.084;2022-07-29T06:49:07;99467.50;;;18.80;54.36
9189;BME280;34313;50.780;6.084;2022-07-29T06:51:32;99476.19;;;19.12;53.33
9189;BME280;34313;50.780;6.084;2022-07-29T06:53:58;99469.81;;;19.60;52.58
9189;BME280;34313;50.780;6.084;2022-07-29T06:56:24;99460.09;;;20.32;50.62
9189;BME280;34313;50.780;6.084;2022-07-29T06:58:50;99475.78;;;20.81;48.97
9189;BME280;34313;50.780;6.084;2022-07-29T07:01:15;99475.50;;;20.92;47.75
9189;BME280;34313;50.780;6.084;2022-07-29T07:03:40;99480.72;;;20.94;48.10
9189;BME280;34313;50.780;6.084;2022-07-29T07:06:07;99486.06;;;20.94;48.16
9189;BME280;34313;50.780;6.084;2022-07-29T07:08:32;99487.50;;;21.32;47.71
9189;BME280;34313;50.780;6.084;2022-07-29T07:10:57;99499.50;;;21.46;47.01
9189;BME280;34313;50.780;6.084;2022-07-29T07:13:23;99488.88;;;21.71;46.45
9189;BME280;34313;50.780;6.084;2022-07-29T07:15:49;99495.88;;;22.06;45.51
9189;BME280;34313;50.780;6.084;2022-07-29T07:18:15;99492.28;;;22.32;45.30
9189;BME280;34313;50.780;6.084;2022-07-29T07:20:41;99503.22;;;23.13;43.75
9189;BME280;34313;50.780;6.084;2022-07-29T07:23:07;99498.09;;;24.22;41.20
9189;BME280;34313;50.780;6.084;2022-07-29T07:25:33;99500.88;;;26.53;36.52
9189;BME280;34313;50.780;6.084;2022-07-29T07:27:58;99508.69;;;28.31;32.94
9189;BME280;34313;50.780;6.084;2022-07-29T07:30:24;99503.38;;;28.98;31.57
9189;BME280;34313;50.780;6.084;2022-07-29T07:32:49;99511.44;;;30.87;29.20
9189;BME280;34313;50.780;6.084;2022-07-29T07:35:14;99502.09;;;33.03;25.84
9189;BME280;34313;50.780;6.084;2022-07-29T07:37:40;99505.66;;;33.39;25.13
9189;BME280;34313;50.780;6.084;2022-07-29T07:40:07;99504.97;;;34.54;23.66
9189;BME280;34313;50.780;6.084;2022-07-29T07:42:33;99507.47;;;35.79;22.05
9189;BME280;34313;50.780;6.084;2022-07-29T07:44:59;99496.06;;;35.09;22.58
9189;BME280;34313;50.780;6.084;2022-07-29T07:47:24;99483.66;;;35.40;22.44
9189;BME280;34313;50.780;6.084;2022-07-29T07:49:50;99501.13;;;31.39;26.52
9189;BME280;34313;50.780;6.084;2022-07-29T07:52:17;99494.91;;;29.73;29.41
9189;BME280;34313;50.780;6.084;2022-07-29T07:54:42;99497.41;;;28.21;32.18
9189;BME280;34313;50.780;6.084;2022-07-29T07:57:09;99498.72;;;26.64;35.05
9189;BME280;34313;50.780;6.084;2022-07-29T07:59:34;99502.81;;;26.01;36.38
9189;BME280;34313;50.780;6.084;2022-07-29T08:02:00;99501.91;;;25.64;37.38
9189;BME280;34313;50.780;6.084;2022-07-29T08:04:26;99504.41;;;25.21;38.11
9189;BME280;34313;50.780;6.084;2022-07-29T08:06:52;99497.56;;;24.96;38.61
9189;BME280;34313;50.780;6.084;2022-07-29T08:09:19;99496.41;;;25.28;38.25
9189;BME280;34313;50.780;6.084;2022-07-29T08:11:45;99512.72;;;25.64;37.88
9189;BME280;34313;50.780;6.084;2022-07-29T08:14:10;99505.03;;;24.70;39.25
9189;BME280;34313;50.780;6.084;2022-07-29T08:16:36;99521.44;;;24.29;40.42
9189;BME280;34313;50.780;6.084;2022-07-29T08:19:01;99510.00;;;23.48;41.90
9189;BME280;34313;50.780;6.084;2022-07-29T08:21:26;99509.91;;;22.68;43.70
9189;BME280;34313;50.780;6.084;2022-07-29T08:23:52;99522.06;;;22.13;44.81
9189;BME280;34313;50.780;6.084;2022-07-29T08:26:20;99514.56;;;21.82;45.14
9189;BME280;34313;50.780;6.084;2022-07-29T08:28:48;99526.59;;;21.43;46.27
9189;BME280;34313;50.780;6.084;2022-07-29T08:31:16;99525.22;;;21.13;47.23
9189;BME280;34313;50.780;6.084;2022-07-29T08:33:42;99518.66;;;21.07;48.21
9189;BME280;34313;50.780;6.084;2022-07-29T08:36:08;99526.78;;;20.98;48.32
9189;BME280;34313;50.780;6.084;2022-07-29T08:38:34;99527.25;;;20.93;48.19
9189;BME280;34313;50.780;6.084;2022-07-29T08:41:01;99526.97;;;21.22;48.21
9189;BME280;34313;50.780;6.084;2022-07-29T08:43:28;99528.84;;;21.90;47.01
9189;BME280;34313;50.780;6.084;2022-07-29T08:45:54;99516.34;;;24.66;41.76
9189;BME280;34313;50.780;6.084;2022-07-29T08:48:23;99522.94;;;25.54;38.92
9189;BME280;34313;50.780;6.084;2022-07-29T08:50:57;99531.66;;;28.35;33.59
9189;BME280;34313;50.780;6.084;2022-07-29T08:53:25;99527.53;;;30.25;30.53
9189;BME280;34313;50.780;6.084;2022-07-29T08:55:52;99521.47;;;31.80;27.88
9189;BME280;34313;50.780;6.084;2022-07-29T08:58:18;99521.91;;;33.81;25.22
9189;BME280;34313;50.780;6.084;2022-07-29T09:00:46;99528.63;;;36.28;22.70
9189;BME280;34313;50.780;6.084;2022-07-29T09:03:18;99516.34;;;37.27;21.10
9189;BME280;34313;50.780;6.084;2022-07-29T09:05:45;99524.72;;;37.11;21.40
9189;BME280;34313;50.780;6.084;2022-07-29T09:08:15;99522.69;;;37.01;21.01
9189;BME280;34313;50.780;6.084;2022-07-29T09:10:40;99534.38;;;35.82;21.70
9189;BME280;34313;50.780;6.084;2022-07-29T09:13:06;99531.47;;;36.16;21.95
9189;BME280;34313;50.780;6.084;2022-07-29T09:15:32;99539.97;;;36.37;21.55
9189;BME280;34313;50.780;6.084;2022-07-29T09:17:57;99533.91;;;35.12;22.74
9189;BME280;34313;50.780;6.084;2022-07-29T09:20:27;99525.75;;;34.38;23.49
9189;BME280;34313;50.780;6.084;2022-07-29T09:23:13;99530.66;;;33.95;23.85
9189;BME280;34313;50.780;6.084;2022-07-29T09:25:40;99523.94;;;34.15;23.64
9189;BME280;34313;50.780;6.084;2022-07-29T09:28:09;99522.25;;;34.54;22.76
9189;BME280;34313;50.780;6.084;2022-07-29T09:30:49;99516.34;;;34.62;22.95
9189;BME280;34313;50.780;6.084;2022-07-29T09:33:15;99524.41;;;34.23;22.73
9189;BME280;34313;50.780;6.084;2022-07-29T09:35:40;99521.03;;;32.74;24.41
9189;BME280;34313;50.780;6.084;2022-07-29T09:38:13;99522.38;;;33.78;23.36
9189;BME280;34313;50.780;6.084;2022-07-29T09:40:38;99524.06;;;33.08;23.90
9189;BME280;34313;50.780;6.084;2022-07-29T09:43:11;99529.66;;;33.72;23.18
9189;BME280;34313;50.780;6.084;2022-07-29T09:45:37;99531.72;;;33.94;23.41
9189;BME280;34313;50.780;6.084;2022-07-29T09:48:17;99536.91;;;33.67;23.43
9189;BME280;34313;50.780;6.084;2022-07-29T09:50:46;99532.09;;;32.49;25.59
9189;BME280;34313;50.780;6.084;2022-07-29T09:53:33;99522.75;;;33.46;24.76
9189;BME280;34313;50.780;6.084;2022-07-29T09:55:59;99541.13;;;32.50;25.50
9189;BME280;34313;50.780;6.084;2022-07-29T09:58:25;99532.16;;;33.50;24.64
9189;BME280;34313;50.780;6.084;2022-07-29T10:00:52;99541.41;;;33.73;24.23
9189;BME280;34313;50.780;6.084;2022-07-29T10:03:18;99549.75;;;32.65;25.77
9189;BME280;34313;50.780;6.084;2022-07-29T10:05:45;99561.19;;;31.26;26.81
9189;BME280;34313;50.780;6.084;2022-07-29T10:08:11;99540.22;;;31.52;27.06
9189;BME280;34313;50.780;6.084;2022-07-29T10:10:42;99546.69;;;31.07;27.40
9189;BME280;34313;50.780;6.084;2022-07-29T10:13:13;99546.03;;;30.48;28.22
9189;BME280;34313;50.780;6.084;2022-07-29T10:15:43;99535.97;;;30.48;27.99
9189;BME280;34313;50.780;6.084;2022-07-29T10:18:14;99541.00;;;31.34;26.64
9189;BME280;34313;50.780;6.084;2022-07-29T10:20:42;99541.41;;;30.48;27.63
9189;BME280;34313;50.780;6.084;2022-07-29T10:23:08;99530.22;;;29.79;28.65
9189;BME280;34313;50.780;6.084;2022-07-29T10:25:34;99549.88;;;29.68;28.84
9189;BME280;34313;50.780;6.084;2022-07-29T10:27:59;99541.75;;;28.68;29.68
9189;BME280;34313;50.780;6.084;2022-07-29T10:30:25;99534.28;;;28.15;31.16
9189;BME280;34313;50.780;6.084;2022-07-29T10:35:34;99533.06;;;28.18;31.63
9189;BME280;34313;50.780;6.084;2022-07-29T10:41:12;99537.38;;;26.42;34.47
9189;BME280;34313;50.780;6.084;2022-07-29T10:43:58;99535.63;;;25.98;35.66
9189;BME280;34313;50.780;6.084;2022-07-29T10:46:24;99534.84;;;26.19;35.41
9189;BME280;34313;50.780;6.084;2022-07-29T10:49:13;99534.25;;;26.24;35.23
9189;BME280;34313;50.780;6.084;2022-07-29T10:52:08;99538.28;;;26.50;35.46
9189;BME280;34313;50.780;6.084;2022-07-29T10:59:44;99541.19;;;25.52;38.40
9189;BME280;34313;50.780;6.084;2022-07-29T11:07:23;99554.50;;;25.69;38.42
9189;BME280;34313;50.780;6.084;2022-07-29T11:15:09;99535.88;;;26.40;37.08
9189;BME280;34313;50.780;6.084;2022-07-29T11:23:30;99544.00;;;25.44;39.45
9189;BME280;34313;50.780;6.084;2022-07-29T11:28:48;99535.69;;;25.31;39.51
9189;BME280;34313;50.780;6.084;2022-07-29T11:31:16;99529.53;;;25.37;39.35
9189;BME280;34313;50.780;6.084;2022-07-29T11:33:43;99553.50;;;25.17;40.04
9189;BME280;34313;50.780;6.084;2022-07-29T11:36:13;99558.09;;;24.93;40.50
9189;BME280;34313;50.780;6.084;2022-07-29T11:38:39;99553.00;;;24.98;40.42
9189;BME280;34313;50.780;6.084;2022-07-29T11:41:23;99550.13;;;25.38;41.00
9189;BME280;34313;50.780;6.084;2022-07-29T11:43:57;99546.94;;;25.79;40.75
9189;BME280;34313;50.780;6.084;2022-07-29T11:46:45;99558.34;;;26.04;39.12
9189;BME280;34313;50.780;6.084;2022-07-29T11:49:12;99556.31;;;26.28;39.04
9189;BME280;34313;50.780;6.084;2022-07-29T11:51:37;99560.38;;;26.38;38.80
9189;BME280;34313;50.780;6.084;2022-07-29T11:54:04;99551.97;;;25.82;39.12
9189;BME280;34313;50.780;6.084;2022-07-29T11:56:31;99559.91;;;25.69;39.45
9189;BME280;34313;50.780;6.084;2022-07-29T11:59:07;99545.19;;;25.41;39.44
9189;BME280;34313;50.780;6.084;2022-07-29T12:01:34;99545.09;;;25.64;39.42
9189;BME280;34313;50.780;6.084;2022-07-29T12:04:04;99543.53;;;25.70;39.07
9189;BME280;34313;50.780;6.084;2022-07-29T12:06:29;99540.63;;;25.72;39.05
9189;BME280;34313;50.780;6.084;2022-07-29T12:08:55;99534.03;;;26.04;38.30
9189;BME280;34313;50.780;6.084;2022-07-29T12:11:21;99536.75;;;26.26;38.00
9189;BME280;34313;50.780;6.084;2022-07-29T12:13:48;99542.97;;;26.04;38.31
9189;BME280;34313;50.780;6.084;2022-07-29T12:16:13;99545.47;;;26.21;37.12
9189;BME280;34313;50.780;6.084;2022-07-29T12:18:39;99543.41;;;26.23;37.53
9189;BME280;34313;50.780;6.084;2022-07-29T12:21:04;99531.44;;;26.32;37.24
9189;BME280;34313;50.780;6.084;2022-07-29T12:23:33;99531.28;;;26.19;37.45
9189;BME280;34313;50.780;6.084;2022-07-29T12:25:59;99531.78;;;25.63;38.24
9189;BME280;34313;50.780;6.084;2022-07-29T12:28:24;99533.47;;;25.94;37.92
9189;BME280;34313;50.780;6.084;2022-07-29T12:30:50;99543.88;;;25.82;37.76
9189;BME280;34313;50.780;6.084;2022-07-29T12:33:27;99545.94;;;26.10;37.60
9189;BME280;34313;50.780;6.084;2022-07-29T12:35:58;99546.75;;;26.25;36.51
9189;BME280;34313;50.780;6.084;2022-07-29T12:38:24;99533.41;;;26.23;37.29
9189;BME280;34313;50.780;6.084;2022-07-29T12:40:53;99528.22;;;25.92;37.30
9189;BME280;34313;50.780;6.084;2022-07-29T12:43:20;99526.84;;;25.96;37.54
9189;BME280;34313;50.780;6.084;2022-07-29T12:45:47;99519.28;;;26.07;37.13
9189;BME280;34313;50.780;6.084;2022-07-29T12:48:14;99528.03;;;26.09;36.88
9189;BME280;34313;50.780;6.084;2022-07-29T12:51:00;99522.31;;;26.33;36.82
9189;BME280;34313;50.780;6.084;2022-07-29T12:53:27;99527.84;;;26.62;36.52
9189;BME280;34313;50.780;6.084;2022-07-29T12:55:54;99523.75;;;26.51;35.93
9189;BME280;34313;50.780;6.084;2022-07-29T13:03:48;99533.22;;;26.25;37.96
9189;BME280;34313;50.780;6.084;2022-07-29T13:11:42;99539.28;;;26.49;37.63
9189;BME280;34313;50.780;6.084;2022-07-29T13:14:11;99542.34;;;26.82;37.30
9189;BME280;34313;50.780;6.084;2022-07-29T13:19:33;99541.13;;;27.34;36.16
9189;BME280;34313;50.780;6.084;2022-07-29T13:21:58;99535.38;;;27.79;35.53
9189;BME280;34313;50.780;6.084;2022-07-29T13:24:24;99541.81;;;28.13;34.38
9189;BME280;34313;50.780;6.084;2022-07-29T13:26:51;99555.09;;;28.56;33.32
9189;BME280;34313;50.780;6.084;2022-07-29T13:29:17;99544.28;;;28.83;32.94
9189;BME280;34313;50.780;6.084;2022-07-29T13:31:42;99558.28;;;28.93;32.65
9189;BME280;34313;50.780;6.084;2022-07-29T13:34:08;99536.38;;;29.21;32.18
9189;BME280;34313;50.780;6.084;2022-07-29T13:36:33;99555.59;;;29.27;31.86
9189;BME280;34313;50.780;6.084;2022-07-29T13:38:59;99546.38;;;29.41;31.18
9189;BME280;34313;50.780;6.084;2022-07-29T13:41:26;99549.31;;;28.93;31.85
9189;BME280;34313;50.780;6.084;2022-07-29T13:43:51;99547.41;;;28.80;31.57
9189;BME280;34313;50.780;6.084;2022-07-29T13:46:16;99550.88;;;28.54;32.23
9189;BME280;34313;50.780;6.084;2022-07-29T13:48:42;99545.53;;;28.67;31.88
9189;BME280;34313;50.780;6.084;2022-07-29T13:51:07;99544.69;;;28.87;31.38
9189;BME280;34313;50.780;6.084;2022-07-29T13:53:33;99541.78;;;29.15;31.53
9189;BME280;34313;50.780;6.084;2022-07-29T13:55:58;99537.00;;;29.17;31.54
9189;BME280;34313;50.780;6.084;2022-07-29T13:58:23;99543.25;;;29.37;30.44
9189;BME280;34313;50.780;6.084;2022-07-29T14:00:49;99538.22;;;29.41;30.56
9189;BME280;34313;50.780;6.084;2022-07-29T14:03:15;99541.06;;;29.73;29.96
9189;BME280;34313;50.780;6.084;2022-07-29T14:05:40;99540.94;;;28.81;29.94
9189;BME280;34313;50.780;6.084;2022-07-29T14:08:05;99546.19;;;28.21;30.89
9189;BME280;34313;50.780;6.084;2022-07-29T14:10:31;99542.13;;;28.52;30.89
9189;BME280;34313;50.780;6.084;2022-07-29T14:12:56;99540.66;;;28.42;31.18